KASX/ASX METAR and TAF weather

Enter ICAO airport designator
Station Type Date Time Source
KASX METAR 2018/10/16 13:53 UTC NOAA

KASX 161353Z AUTO 24013KT 10SM CLR 06/M01 A2985 RMK AO2 SLP115 T00561006


Station Type Date Time Source
KASX Decoded METAR 2018/10/16 13:53 UTC NOAA

ASHLAND KENNEDY MEMORIAL, WI, United States (KASX) 46-33N 090-55W 251M
Oct 16, 2018 - 09:53 AM EDT / 2018.10.16 1353 UTC
Wind: from the WSW (240 degrees) at 15 MPH (13 KT):0
Visibility: 10 mile(s):0
Sky conditions: clear
Temperature: 42.1 F (5.6 C)
Dew Point: 30.9 F (-0.6 C)
Relative Humidity: 64%
Pressure (altimeter): 29.85 in. Hg (1010 hPa)
ob: KASX 161353Z AUTO 24013KT 10SM CLR 06/M01 A2985 RMK AO2 SLP115 T00561006
cycle: 14

Station Type Date Time Source
KASX TAF UTC NOAA

Error!


Example: see airport list